Time;durP1;ratioP1;P1;durP2;ratioP2;P2;SDS_P1;SDS_P2;PMS_P1;PMS_P2;Temp;Humidity;BMP_temperature;BMP_pressure;BME280_temperature;BME280_humidity;BME280_pressure;Samples;Min_cycle;Max_cycle;Signal;HPM_P1;HPM_P2
2023/01/03 00:01:59;;;;;;;;;;;13.00;99.90;;;;;;5051297;28;20471;-80
2023/01/03 00:04:25;;;;;;;;;;;13.00;99.90;;;;;;5054383;28;19904;-79
2023/01/03 00:07:01;;;;;;;;;;;12.90;99.90;;;;;;5054664;28;19912;-80
2023/01/03 00:09:27;;;;;;;;;;;13.00;99.90;;;;;;5054793;28;19905;-81
2023/01/03 00:15:01;;;;;;;;;;;13.00;99.90;;;;;;5054721;28;19931;-78
2023/01/03 00:17:27;;;;;;;;;;;12.90;99.90;;;;;;5055033;28;19995;-80
2023/01/03 00:20:00;;;;;;;;;;;13.00;99.90;;;;;;5054505;28;19905;-79
2023/01/03 00:22:53;;;;;;;;;;;13.00;99.90;;;;;;5054390;28;20272;-83
2023/01/03 00:25:19;;;;;;;;;;;13.00;99.90;;;;;;5051622;28;19912;-79
2023/01/03 00:27:48;;;;;;;;;;;13.00;99.90;;;;;;5054262;28;19905;-79
2023/01/03 00:30:16;;;;;;;;;;;13.00;99.90;;;;;;5054714;28;19924;-79
2023/01/03 00:32:42;;;;;;;;;;;13.00;99.90;;;;;;5054424;28;19905;-79
2023/01/03 00:35:10;;;;;;;;;;;12.90;99.90;;;;;;5054450;28;19931;-79
2023/01/03 00:37:36;;;;;;;;;;;12.90;99.90;;;;;;5054125;28;20004;-79
2023/01/03 00:40:04;;;;;;;;;;;12.90;99.90;;;;;;5054810;28;19905;-79
2023/01/03 00:43:27;;;;;;;;;;;12.90;99.90;;;;;;5054497;28;20265;-79
2023/01/03 00:45:16;;;;;;;;;;;12.90;99.90;;;;;;5053963;28;20304;-79
2023/01/03 00:47:41;;;;;;;;;;;12.90;99.90;;;;;;5052665;28;19912;-79
2023/01/03 00:50:07;;;;;;;;;;;12.90;99.90;;;;;;5053828;28;20071;-78
2023/01/03 00:52:33;;;;;;;;;;;12.90;99.90;;;;;;5054152;28;20007;-79
2023/01/03 00:54:59;;;;;;;;;;;12.90;99.90;;;;;;5053915;28;19909;-79
2023/01/03 00:57:25;;;;;;;;;;;12.90;99.90;;;;;;5052394;28;19905;-78
2023/01/03 00:59:50;;;;;;;;;;;12.90;99.90;;;;;;5054252;28;19904;-79
2023/01/03 01:02:19;;;;;;;;;;;12.80;99.90;;;;;;5053976;28;19970;-80
2023/01/03 01:04:44;;;;;;;;;;;12.80;99.90;;;;;;5054596;28;19924;-78
2023/01/03 01:07:11;;;;;;;;;;;12.80;99.90;;;;;;5052956;28;19904;-78
2023/01/03 01:09:58;;;;;;;;;;;12.80;99.90;;;;;;5069657;28;20329;-80
2023/01/03 01:12:26;;;;;;;;;;;12.80;99.90;;;;;;5053857;28;19916;-79
2023/01/03 01:14:53;;;;;;;;;;;12.80;99.90;;;;;;5052618;28;19981;-79
2023/01/03 01:17:19;;;;;;;;;;;12.80;99.90;;;;;;5069517;28;19974;-79
2023/01/03 01:19:54;;;;;;;;;;;12.80;99.90;;;;;;5053573;28;19904;-80
2023/01/03 01:22:20;;;;;;;;;;;12.80;99.90;;;;;;5053773;28;19905;-80
2023/01/03 01:24:58;;;;;;;;;;;12.80;99.90;;;;;;5053820;28;20011;-80
2023/01/03 01:27:23;;;;;;;;;;;12.80;99.90;;;;;;5053570;28;19909;-76
2023/01/03 01:29:56;;;;;;;;;;;12.90;99.90;;;;;;5053447;28;19935;-74
2023/01/03 01:32:22;;;;;;;;;;;12.90;99.90;;;;;;5053635;28;19904;-79
2023/01/03 01:34:48;;;;;;;;;;;13.00;99.90;;;;;;5053250;28;19909;-77
2023/01/03 01:37:13;;;;;;;;;;;13.00;99.90;;;;;;5053121;28;19927;-78
2023/01/03 01:39:40;;;;;;;;;;;13.00;99.90;;;;;;5053352;28;20400;-78
2023/01/03 01:45:14;;;;;;;;;;;13.10;99.90;;;;;;5053926;28;19920;-78
2023/01/03 01:47:39;;;;;;;;;;;13.10;99.90;;;;;;5053109;28;19908;-78
2023/01/03 01:50:14;;;;;;;;;;;13.20;99.90;;;;;;5053352;28;19911;-79
2023/01/03 01:53:08;;;;;;;;;;;13.10;99.90;;;;;;5052658;28;19960;-78
2023/01/03 01:56:00;;;;;;;;;;;13.10;99.90;;;;;;5049536;28;19913;-74
2023/01/03 01:58:38;;;;;;;;;;;13.20;99.90;;;;;;5037157;28;19905;-78
2023/01/03 02:01:12;;;;;;;;;;;13.30;99.90;;;;;;5053367;28;19913;-78
2023/01/03 02:03:40;;;;;;;;;;;13.30;99.90;;;;;;5053127;28;19995;-79
2023/01/03 02:06:13;;;;;;;;;;;13.30;99.90;;;;;;5052596;28;19974;-78
2023/01/03 02:08:57;;;;;;;;;;;13.30;99.90;;;;;;5052638;28;19915;-80
2023/01/03 02:11:23;;;;;;;;;;;13.20;99.90;;;;;;5052641;28;19911;-79
2023/01/03 02:14:04;;;;;;;;;;;13.00;99.90;;;;;;5052600;28;19984;-79
2023/01/03 02:16:47;;;;;;;;;;;12.90;99.90;;;;;;5052920;28;19966;-80
2023/01/03 02:19:25;;;;;;;;;;;12.80;99.90;;;;;;5052805;28;19905;-79
2023/01/03 02:22:20;;;;;;;;;;;12.80;99.90;;;;;;5052377;28;20331;-79
2023/01/03 02:25:04;;;;;;;;;;;12.70;99.90;;;;;;4991251;28;20019;-78
2023/01/03 02:27:40;;;;;;;;;;;12.70;99.90;;;;;;4991156;28;20334;-78
2023/01/03 02:30:27;;;;;;;;;;;12.60;99.90;;;;;;4991297;28;20032;-78
2023/01/03 02:33:04;;;;;;;;;;;12.50;99.90;;;;;;4990791;28;19905;-78
2023/01/03 02:35:57;;;;;;;;;;;12.50;99.90;;;;;;4991358;28;20350;-78
2023/01/03 02:38:33;;;;;;;;;;;12.50;99.90;;;;;;4990683;28;20297;-78
2023/01/03 02:41:32;;;;;;;;;;;12.40;99.90;;;;;;4990835;28;20357;-78
2023/01/03 02:44:02;;;;;;;;;;;12.40;99.90;;;;;;4991054;28;19905;-79
2023/01/03 02:46:32;;;;;;;;;;;12.40;99.90;;;;;;4990747;28;19964;-78
2023/01/03 02:49:04;;;;;;;;;;;12.40;99.90;;;;;;4990963;28;19916;-77
2023/01/03 02:51:37;;;;;;;;;;;12.50;99.90;;;;;;4990212;28;19917;-83
2023/01/03 02:54:05;;;;;;;;;;;12.50;99.90;;;;;;4991021;28;20246;-79
2023/01/03 02:56:36;;;;;;;;;;;12.50;99.90;;;;;;4990847;28;19905;-78
2023/01/03 02:59:06;;;;;;;;;;;12.50;99.90;;;;;;4990970;28;20000;-78
2023/01/03 03:01:43;;;;;;;;;;;12.50;99.90;;;;;;4990896;28;19906;-80
2023/01/03 03:04:32;;;;;;;;;;;12.40;99.90;;;;;;4991440;28;19912;-78
2023/01/03 03:07:02;;;;;;;;;;;12.30;99.90;;;;;;4989669;28;19921;-79
2023/01/03 03:09:28;;;;;;;;;;;12.30;99.90;;;;;;4990749;28;19906;-82
2023/01/03 03:14:48;;;;;;;;;;;12.30;99.90;;;;;;4991227;28;19912;-78
2023/01/03 03:17:28;;;;;;;;;;;12.20;99.90;;;;;;4990798;28;19906;-78
2023/01/03 03:25:49;;;;;;;;;;;12.10;99.90;;;;;;5012393;28;19920;-78
2023/01/03 03:28:36;;;;;;;;;;;12.10;99.90;;;;;;5012190;28;20336;-78
2023/01/03 03:31:24;;;;;;;;;;;12.10;99.90;;;;;;5017905;28;19905;-78
2023/01/03 03:34:08;;;;;;;;;;;12.10;99.90;;;;;;5031998;28;19905;-78
2023/01/03 03:36:41;;;;;;;;;;;12.10;99.90;;;;;;5031534;28;19917;-73
2023/01/03 03:45:01;;;;;;;;;;;12.20;99.90;;;;;;5035825;28;19939;-79
2023/01/03 03:47:27;;;;;;;;;;;12.10;99.90;;;;;;5035308;28;19951;-78
2023/01/03 03:49:59;;;;;;;;;;;12.10;99.90;;;;;;5035065;28;19912;-79
2023/01/03 03:52:26;;;;;;;;;;;12.10;99.90;;;;;;5050655;28;20015;-78
2023/01/03 03:55:00;;;;;;;;;;;12.10;99.90;;;;;;5054832;28;19970;-78
2023/01/03 03:57:34;;;;;;;;;;;12.10;99.90;;;;;;5055961;28;19936;-78
2023/01/03 04:00:20;;;;;;;;;;;12.10;99.90;;;;;;5055923;28;20357;-77
2023/01/03 04:02:59;;;;;;;;;;;12.10;99.90;;;;;;5055457;28;19905;-78
2023/01/03 04:05:26;;;;;;;;;;;12.20;99.90;;;;;;5056231;28;19919;-78
2023/01/03 04:07:58;;;;;;;;;;;12.20;99.90;;;;;;5055884;28;19915;-79
2023/01/03 04:10:24;;;;;;;;;;;12.20;99.90;;;;;;5056313;28;19912;-79
2023/01/03 04:12:50;;;;;;;;;;;12.20;99.90;;;;;;5055813;28;19905;-79
2023/01/03 04:15:17;;;;;;;;;;;12.20;99.90;;;;;;5055767;28;19987;-78
2023/01/03 04:17:43;;;;;;;;;;;12.10;99.90;;;;;;5055988;28;19966;-79
2023/01/03 04:20:18;;;;;;;;;;;12.10;99.90;;;;;;5055938;28;19915;-78
2023/01/03 04:22:45;;;;;;;;;;;12.00;99.90;;;;;;5055763;28;19905;-78
2023/01/03 04:25:10;;;;;;;;;;;12.00;99.90;;;;;;5056042;28;20007;-79
2023/01/03 04:27:36;;;;;;;;;;;12.00;99.90;;;;;;5055908;28;20412;-78
2023/01/03 04:30:04;;;;;;;;;;;12.00;99.90;;;;;;5071077;28;19970;-79
2023/01/03 04:32:30;;;;;;;;;;;12.00;99.90;;;;;;5055672;28;19904;-78
2023/01/03 04:34:56;;;;;;;;;;;12.00;99.90;;;;;;5056116;28;19912;-78
2023/01/03 04:37:28;;;;;;;;;;;12.00;99.90;;;;;;5055584;28;19904;-78
2023/01/03 04:39:54;;;;;;;;;;;12.00;99.90;;;;;;5055884;28;19905;-79
2023/01/03 04:45:05;;;;;;;;;;;12.00;99.90;;;;;;5054498;28;19920;-78
2023/01/03 04:47:30;;;;;;;;;;;12.00;99.90;;;;;;5054276;28;19920;-79
2023/01/03 04:49:56;;;;;;;;;;;12.10;99.90;;;;;;5054104;28;19904;-78
2023/01/03 04:52:22;;;;;;;;;;;12.10;99.90;;;;;;5054446;28;19995;-78
2023/01/03 04:54:48;;;;;;;;;;;12.10;99.90;;;;;;5054606;28;20264;-78
2023/01/03 04:57:17;;;;;;;;;;;12.10;99.90;;;;;;5052751;28;19950;-78
2023/01/03 04:59:49;;;;;;;;;;;12.20;99.90;;;;;;5054085;28;20349;-79
2023/01/03 05:02:16;;;;;;;;;;;12.30;99.90;;;;;;5054044;28;19904;-78
2023/01/03 05:04:42;;;;;;;;;;;12.30;99.90;;;;;;5054795;28;20344;-77
2023/01/03 05:07:07;;;;;;;;;;;12.20;99.90;;;;;;5052775;28;19905;-78
2023/01/03 05:09:33;;;;;;;;;;;12.20;99.90;;;;;;5054129;28;20338;-77
2023/01/03 05:12:03;;;;;;;;;;;12.20;99.90;;;;;;5054253;28;19909;-79
2023/01/03 05:14:30;;;;;;;;;;;12.10;99.90;;;;;;5054643;28;19909;-76
2023/01/03 05:16:57;;;;;;;;;;;12.10;99.90;;;;;;5054526;28;19927;-78
2023/01/03 05:19:23;;;;;;;;;;;12.10;99.90;;;;;;5054706;28;19911;-78
2023/01/03 05:27:33;;;;;;;;;;;12.10;99.90;;;;;;5053931;28;20013;-78
2023/01/03 05:30:00;;;;;;;;;;;12.10;99.90;;;;;;5054607;28;19905;-78
2023/01/03 05:32:28;;;;;;;;;;;12.10;99.90;;;;;;5053260;28;19970;-79
2023/01/03 05:35:09;;;;;;;;;;;12.10;99.90;;;;;;5054443;28;19911;-79
2023/01/03 05:37:44;;;;;;;;;;;12.10;99.90;;;;;;5054364;28;19999;-78
2023/01/03 05:40:10;;;;;;;;;;;12.10;99.90;;;;;;5054267;28;20047;-78
2023/01/03 05:42:37;;;;;;;;;;;12.00;99.90;;;;;;5054358;28;19947;-78
2023/01/03 05:45:09;;;;;;;;;;;12.00;99.90;;;;;;5054519;28;19912;-79
2023/01/03 05:47:36;;;;;;;;;;;12.00;99.90;;;;;;5053908;28;19909;-78
2023/01/03 05:50:01;;;;;;;;;;;12.00;99.90;;;;;;5054137;28;19928;-79
2023/01/03 05:52:28;;;;;;;;;;;12.10;99.90;;;;;;5067117;28;20269;-79
2023/01/03 05:54:57;;;;;;;;;;;12.10;99.90;;;;;;5074011;28;19908;-78
2023/01/03 05:57:22;;;;;;;;;;;12.10;99.90;;;;;;5073985;28;19927;-79
2023/01/03 06:00:04;;;;;;;;;;;12.10;99.90;;;;;;5031682;28;20365;-75
2023/01/03 06:02:37;;;;;;;;;;;12.20;99.90;;;;;;5031710;28;19912;-77
2023/01/03 06:05:05;;;;;;;;;;;12.20;99.90;;;;;;5031785;28;20007;-80
2023/01/03 06:07:32;;;;;;;;;;;12.20;99.90;;;;;;5032255;28;20359;-80
2023/01/03 06:10:04;;;;;;;;;;;12.30;99.90;;;;;;5029574;28;19904;-79
2023/01/03 06:12:30;;;;;;;;;;;12.30;99.90;;;;;;5012242;28;19905;-80
2023/01/03 06:14:56;;;;;;;;;;;12.30;99.90;;;;;;5012048;28;19912;-79
2023/01/03 06:20:06;;;;;;;;;;;12.30;99.90;;;;;;5012181;28;19994;-81
2023/01/03 06:22:32;;;;;;;;;;;12.30;99.90;;;;;;5011875;28;19968;-80
2023/01/03 06:24:58;;;;;;;;;;;12.40;99.90;;;;;;5012210;28;19917;-80
2023/01/03 06:27:24;;;;;;;;;;;12.40;99.90;;;;;;5012379;28;20350;-80
2023/01/03 06:29:51;;;;;;;;;;;12.40;99.90;;;;;;5011203;28;19940;-79
2023/01/03 06:32:19;;;;;;;;;;;12.40;99.90;;;;;;5011035;28;19912;-80
2023/01/03 06:34:44;;;;;;;;;;;12.50;99.90;;;;;;4987841;28;19905;-79
2023/01/03 06:37:10;;;;;;;;;;;12.60;99.90;;;;;;5031342;28;19959;-80
2023/01/03 06:39:39;;;;;;;;;;;12.60;99.90;;;;;;5070202;28;19914;-80
2023/01/03 06:53:14;;;;;;;;;;;13.90;99.90;;;;;;5052092;28;19928;-74
2023/01/03 06:55:43;;;;;;;;;;;14.40;99.90;;;;;;5049113;28;19924;-80
2023/01/03 06:58:10;;;;;;;;;;;14.70;99.90;;;;;;5052538;28;19920;-79
2023/01/03 07:00:36;;;;;;;;;;;14.80;99.90;;;;;;5052382;28;19984;-79
2023/01/03 07:03:03;;;;;;;;;;;14.80;99.90;;;;;;5053439;28;20340;-80
2023/01/03 07:05:32;;;;;;;;;;;14.80;99.90;;;;;;5052117;28;19963;-79
2023/01/03 07:07:58;;;;;;;;;;;14.80;99.90;;;;;;5051867;28;19999;-79
2023/01/03 07:10:27;;;;;;;;;;;15.00;99.90;;;;;;5051878;28;19995;-81
2023/01/03 07:15:42;;;;;;;;;;;14.90;99.90;;;;;;5056663;28;19947;-79
2023/01/03 07:18:08;;;;;;;;;;;14.80;99.90;;;;;;5056501;28;19905;-80
2023/01/03 07:20:34;;;;;;;;;;;14.80;99.90;;;;;;5055161;28;20003;-69
2023/01/03 07:23:00;;;;;;;;;;;14.90;99.90;;;;;;5056501;28;19951;-78
2023/01/03 07:25:29;;;;;;;;;;;15.20;99.90;;;;;;5057084;28;20015;-78
2023/01/03 07:27:56;;;;;;;;;;;15.40;99.90;;;;;;5055576;28;19912;-76
2023/01/03 07:30:22;;;;;;;;;;;15.70;99.90;;;;;;5056444;28;20333;-77
2023/01/03 07:32:49;;;;;;;;;;;15.90;99.90;;;;;;5056172;28;19948;-80
2023/01/03 07:35:16;;;;;;;;;;;16.30;99.90;;;;;;5056154;28;19911;-78
2023/01/03 07:37:43;;;;;;;;;;;16.50;99.90;;;;;;5038144;28;19905;-78
2023/01/03 07:40:09;;;;;;;;;;;16.20;99.90;;;;;;5059575;28;19963;-78
2023/01/03 07:45:28;;;;;;;;;;;15.70;99.90;;;;;;5076005;28;19923;-82
2023/01/03 07:47:56;;;;;;;;;;;15.80;99.90;;;;;;5076421;28;19927;-79
2023/01/03 07:50:21;;;;;;;;;;;15.60;99.90;;;;;;5076143;28;19912;-79
2023/01/03 07:52:50;;;;;;;;;;;15.50;99.90;;;;;;5075570;28;20233;-78
2023/01/03 07:55:17;;;;;;;;;;;15.40;99.90;;;;;;5075983;28;19904;-78
2023/01/03 07:57:51;;;;;;;;;;;15.40;99.90;;;;;;5076313;28;19904;-78
2023/01/03 08:00:19;;;;;;;;;;;15.30;99.90;;;;;;5075965;28;19908;-78
2023/01/03 08:02:44;;;;;;;;;;;15.40;99.90;;;;;;5038152;28;19905;-78
2023/01/03 08:05:11;;;;;;;;;;;15.50;99.90;;;;;;5055399;28;19990;-78
2023/01/03 08:07:38;;;;;;;;;;;15.60;99.90;;;;;;5055541;28;19916;-79
2023/01/03 08:16:04;;;;;;;;;;;15.70;99.90;;;;;;5056026;28;19919;-75
2023/01/03 08:19:00;;;;;;;;;;;15.70;99.90;;;;;;5054574;28;19995;-77
2023/01/03 08:21:26;;;;;;;;;;;15.70;99.90;;;;;;5053906;28;19904;-77
2023/01/03 08:23:52;;;;;;;;;;;15.90;99.90;;;;;;5054636;28;19915;-77
2023/01/03 08:26:19;;;;;;;;;;;15.90;99.90;;;;;;5055502;28;19913;-79
2023/01/03 08:28:52;;;;;;;;;;;15.80;99.90;;;;;;5055135;28;20408;-76
2023/01/03 08:31:22;;;;;;;;;;;15.70;99.90;;;;;;5054941;28;19995;-76
2023/01/03 08:34:02;;;;;;;;;;;15.60;99.90;;;;;;5055256;28;19912;-76
2023/01/03 08:36:31;;;;;;;;;;;15.50;99.90;;;;;;5055090;28;20273;-77
2023/01/03 08:39:03;;;;;;;;;;;15.70;99.90;;;;;;5054889;28;20003;-78
2023/01/03 08:41:30;;;;;;;;;;;15.70;99.90;;;;;;5050813;28;19946;-77
2023/01/03 08:43:57;;;;;;;;;;;15.70;99.90;;;;;;5074904;28;19905;-77
2023/01/03 08:46:29;;;;;;;;;;;15.70;99.90;;;;;;5075277;28;19913;-78
2023/01/03 08:48:59;;;;;;;;;;;15.80;99.90;;;;;;5056849;28;19991;-78
2023/01/03 08:51:28;;;;;;;;;;;15.70;99.90;;;;;;5073854;28;19912;-79
2023/01/03 08:54:09;;;;;;;;;;;15.90;99.90;;;;;;5053922;28;19913;-78
2023/01/03 08:56:57;;;;;;;;;;;15.80;99.90;;;;;;5054400;28;19919;-79
2023/01/03 08:59:23;;;;;;;;;;;15.80;99.90;;;;;;5054033;28;19912;-78
2023/01/03 09:01:59;;;;;;;;;;;15.90;99.90;;;;;;5054122;28;20235;-77
2023/01/03 09:04:25;;;;;;;;;;;16.00;99.90;;;;;;5053804;28;19904;-78
2023/01/03 09:06:51;;;;;;;;;;;16.00;99.90;;;;;;5053771;28;19919;-77
2023/01/03 09:09:17;;;;;;;;;;;16.10;99.90;;;;;;5053848;28;19905;-77
2023/01/03 09:11:43;;;;;;;;;;;16.20;99.90;;;;;;5051962;28;19905;-76
2023/01/03 09:14:08;;;;;;;;;;;16.10;99.90;;;;;;5052029;28;19909;-77
2023/01/03 09:16:40;;;;;;;;;;;16.20;99.90;;;;;;5054218;28;20246;-77
2023/01/03 09:19:12;;;;;;;;;;;16.20;99.90;;;;;;5054544;28;19905;-77
2023/01/03 09:21:51;;;;;;;;;;;16.20;99.90;;;;;;5054443;28;19950;-77
2023/01/03 09:24:17;;;;;;;;;;;16.20;99.90;;;;;;5054137;28;19959;-77
2023/01/03 09:26:43;;;;;;;;;;;16.30;99.90;;;;;;5054299;28;19967;-74
2023/01/03 09:29:09;;;;;;;;;;;16.30;99.90;;;;;;5036723;28;20305;-77
2023/01/03 09:31:38;;;;;;;;;;;16.30;99.90;;;;;;5044331;28;19909;-78
2023/01/03 09:34:04;;;;;;;;;;;16.10;99.90;;;;;;5034668;28;19905;-77
2023/01/03 09:36:30;;;;;;;;;;;16.20;99.90;;;;;;5033140;28;19909;-77
2023/01/03 09:38:56;;;;;;;;;;;16.20;99.90;;;;;;5033670;28;20360;-77
2023/01/03 09:41:25;;;;;;;;;;;16.20;99.90;;;;;;5046902;28;19912;-76
2023/01/03 09:43:55;;;;;;;;;;;16.40;99.90;;;;;;5054430;28;19999;-78
2023/01/03 09:46:31;;;;;;;;;;;16.70;99.90;;;;;;5053995;28;19913;-77
2023/01/03 09:48:57;;;;;;;;;;;16.90;99.90;;;;;;5053968;28;20451;-77
2023/01/03 10:05:58;;;;;;;;;;;17.40;99.90;;;;;;5033187;28;19959;-77
2023/01/03 10:08:33;;;;;;;;;;;17.70;99.90;;;;;;5032988;28;19912;-77
2023/01/03 10:11:03;;;;;;;;;;;17.90;99.90;;;;;;5042758;28;20062;-76
2023/01/03 10:13:48;;;;;;;;;;;18.20;99.90;;;;;;5036655;28;20419;-77
2023/01/03 10:16:32;;;;;;;;;;;18.60;99.90;;;;;;5033246;28;19999;-77
2023/01/03 10:19:16;;;;;;;;;;;19.10;99.90;;;;;;5032948;28;19905;-77
2023/01/03 10:21:53;;;;;;;;;;;19.40;99.90;;;;;;5033221;28;19905;-79
2023/01/03 10:24:29;;;;;;;;;;;19.80;99.90;;;;;;5032749;28;19905;-79
2023/01/03 10:27:12;;;;;;;;;;;20.00;99.90;;;;;;5033067;28;19923;-77
2023/01/03 10:29:38;;;;;;;;;;;20.10;99.90;;;;;;5033038;28;19955;-77
2023/01/03 10:32:17;;;;;;;;;;;20.40;99.90;;;;;;5032670;28;20349;-77
2023/01/03 10:35:02;;;;;;;;;;;20.40;99.90;;;;;;5032386;28;19912;-78
2023/01/03 10:37:28;;;;;;;;;;;20.50;99.90;;;;;;5032793;28;19968;-79
2023/01/03 10:40:00;;;;;;;;;;;20.70;99.90;;;;;;5015203;28;19908;-77
2023/01/03 10:42:29;;;;;;;;;;;20.90;99.90;;;;;;5052687;28;20341;-77
2023/01/03 10:45:21;;;;;;;;;;;21.00;99.90;;;;;;5052340;28;19904;-77
2023/01/03 10:47:59;;;;;;;;;;;21.00;99.90;;;;;;5048053;28;20361;-78
2023/01/03 10:50:26;;;;;;;;;;;20.70;99.90;;;;;;5052542;28;19909;-77
2023/01/03 10:53:07;;;;;;;;;;;20.90;99.90;;;;;;5064190;28;19963;-78
2023/01/03 10:55:33;;;;;;;;;;;21.00;99.90;;;;;;5072655;28;19908;-77
2023/01/03 10:58:13;;;;;;;;;;;20.90;99.90;;;;;;5054318;28;19931;-78
2023/01/03 11:00:42;;;;;;;;;;;20.70;99.90;;;;;;5069751;28;20089;-77
2023/01/03 11:03:13;;;;;;;;;;;20.70;99.90;;;;;;5033966;28;19924;-77
2023/01/03 11:05:41;;;;;;;;;;;20.90;99.90;;;;;;5052267;28;20202;-78
2023/01/03 11:08:17;;;;;;;;;;;21.00;99.90;;;;;;5051952;28;19985;-77
2023/01/03 11:10:56;;;;;;;;;;;21.30;99.90;;;;;;5052122;28;19905;-77
2023/01/03 11:13:31;;;;;;;;;;;21.20;99.90;;;;;;5052933;28;19958;-77
2023/01/03 11:15:58;;;;;;;;;;;21.60;99.90;;;;;;5052333;28;19904;-77
2023/01/03 11:18:26;;;;;;;;;;;21.70;99.90;;;;;;5052543;28;20351;-77
2023/01/03 11:20:58;;;;;;;;;;;21.60;99.90;;;;;;5051956;28;19904;-78
2023/01/03 11:23:52;;;;;;;;;;;21.50;99.90;;;;;;5052098;28;19909;-79
2023/01/03 11:26:36;;;;;;;;;;;21.90;99.90;;;;;;5051803;28;20237;-77
2023/01/03 11:29:21;;;;;;;;;;;22.00;99.90;;;;;;5033351;28;19927;-77
2023/01/03 11:32:05;;;;;;;;;;;22.30;99.90;;;;;;5039416;28;19905;-78
2023/01/03 11:34:51;;;;;;;;;;;22.00;99.90;;;;;;5032291;28;19929;-77
2023/01/03 11:37:23;;;;;;;;;;;21.70;99.90;;;;;;5032301;28;19912;-77
2023/01/03 11:40:23;;;;;;;;;;;22.00;99.90;;;;;;5032011;28;19916;-78
2023/01/03 11:42:58;;;;;;;;;;;22.00;99.90;;;;;;5018266;28;19916;-78
2023/01/03 11:45:24;;;;;;;;;;;22.20;99.90;;;;;;5050921;28;19917;-77
2023/01/03 11:47:52;;;;;;;;;;;22.20;99.90;;;;;;5051408;28;19975;-78
2023/01/03 11:50:38;;;;;;;;;;;21.60;99.90;;;;;;5051624;28;19905;-78
2023/01/03 11:53:14;;;;;;;;;;;21.10;99.90;;;;;;5051663;28;20070;-76
2023/01/03 11:55:39;;;;;;;;;;;21.40;99.90;;;;;;5032534;28;19911;-78
2023/01/03 11:58:19;;;;;;;;;;;21.30;99.90;;;;;;5031538;28;19999;-75
2023/01/03 12:01:03;;;;;;;;;;;21.30;99.90;;;;;;5038341;28;20209;-79
2023/01/03 12:03:47;;;;;;;;;;;21.10;99.90;;;;;;5055527;28;19904;-78
2023/01/03 12:06:31;;;;;;;;;;;21.40;99.90;;;;;;5055427;28;19952;-76
2023/01/03 12:09:23;;;;;;;;;;;21.30;99.90;;;;;;5055326;28;20043;-78
2023/01/03 12:12:06;;;;;;;;;;;21.40;99.90;;;;;;5067008;28;19944;-77
2023/01/03 12:15:00;;;;;;;;;;;21.20;99.90;;;;;;5075418;28;19970;-78
2023/01/03 12:17:51;;;;;;;;;;;21.10;99.90;;;;;;5075281;28;19911;-77
2023/01/03 12:20:26;;;;;;;;;;;21.20;99.90;;;;;;5035673;28;19912;-78
2023/01/03 12:23:27;;;;;;;;;;;21.10;99.90;;;;;;5056686;28;20279;-78
2023/01/03 12:25:55;;;;;;;;;;;21.30;99.90;;;;;;5055991;28;20357;-76
2023/01/03 12:28:31;;;;;;;;;;;20.80;99.90;;;;;;5056493;28;20284;-76
2023/01/03 12:30:59;;;;;;;;;;;20.80;99.90;;;;;;5055784;28;19905;-77
2023/01/03 12:34:02;;;;;;;;;;;20.50;99.90;;;;;;5054489;28;20360;-78
2023/01/03 12:36:54;;;;;;;;;;;20.40;99.90;;;;;;5055599;28;19905;-78
2023/01/03 12:39:39;;;;;;;;;;;20.30;99.90;;;;;;5055410;28;20388;-77
2023/01/03 12:42:04;;;;;;;;;;;20.60;99.90;;;;;;5064173;22;20411;-77
2023/01/03 12:44:42;;;;;;;;;;;20.60;99.90;;;;;;5075517;28;19920;-77
2023/01/03 12:47:13;;;;;;;;;;;20.60;99.90;;;;;;5075591;28;20378;-77
2023/01/03 12:49:42;;;;;;;;;;;20.70;99.90;;;;;;5075604;28;19975;-82
2023/01/03 12:52:12;;;;;;;;;;;20.80;99.90;;;;;;5075539;28;20004;-80
2023/01/03 12:54:44;;;;;;;;;;;20.70;99.90;;;;;;5074981;28;19904;-80
2023/01/03 12:57:13;;;;;;;;;;;20.50;99.90;;;;;;5073426;28;19970;-80
2023/01/03 12:59:57;;;;;;;;;;;20.40;99.90;;;;;;5075218;28;20382;-80
2023/01/03 13:02:34;;;;;;;;;;;20.30;99.90;;;;;;5073884;28;20266;-79
2023/01/03 13:05:15;;;;;;;;;;;20.40;99.90;;;;;;5075821;28;19947;-79
2023/01/03 13:07:43;;;;;;;;;;;20.50;99.90;;;;;;5074733;28;20007;-79
2023/01/03 13:10:24;;;;;;;;;;;20.50;99.90;;;;;;5089678;28;19904;-79
2023/01/03 13:12:56;;;;;;;;;;;20.40;99.90;;;;;;5095823;28;19946;-79
2023/01/03 13:15:26;;;;;;;;;;;20.20;99.90;;;;;;5095539;28;19908;-79
2023/01/03 13:17:52;;;;;;;;;;;20.40;99.90;;;;;;5077100;28;19911;-80
2023/01/03 13:20:36;;;;;;;;;;;20.10;99.90;;;;;;5095546;28;19908;-80
2023/01/03 13:23:20;;;;;;;;;;;20.10;99.90;;;;;;5095216;28;19915;-81
2023/01/03 13:26:04;;;;;;;;;;;20.20;99.90;;;;;;5094790;28;19970;-80
2023/01/03 13:28:32;;;;;;;;;;;20.00;99.90;;;;;;5095397;28;19910;-80
2023/01/03 13:31:16;;;;;;;;;;;20.20;99.90;;;;;;5071709;28;19904;-80
2023/01/03 13:33:54;;;;;;;;;;;20.40;99.90;;;;;;5074611;28;19909;-81
2023/01/03 13:36:23;;;;;;;;;;;20.20;99.90;;;;;;5074813;28;19927;-81
2023/01/03 13:39:24;;;;;;;;;;;20.10;99.90;;;;;;5074144;28;19904;-80
2023/01/03 13:42:04;;;;;;;;;;;19.80;99.90;;;;;;5074592;28;20272;-81
2023/01/03 13:44:31;;;;;;;;;;;20.00;99.90;;;;;;5054681;28;20353;-80
2023/01/03 13:47:00;;;;;;;;;;;19.90;99.90;;;;;;5053994;28;19913;-80
2023/01/03 13:49:27;;;;;;;;;;;19.90;99.90;;;;;;5035559;28;19905;-79
2023/01/03 13:52:04;;;;;;;;;;;19.90;99.90;;;;;;5053821;28;20135;-80
2023/01/03 13:54:34;;;;;;;;;;;19.80;99.90;;;;;;5053197;28;19912;-80
2023/01/03 13:57:02;;;;;;;;;;;19.90;99.90;;;;;;5053171;28;20249;-79
2023/01/03 13:59:33;;;;;;;;;;;20.00;99.90;;;;;;5053715;28;19927;-86
2023/01/03 14:02:10;;;;;;;;;;;19.90;99.90;;;;;;5053230;28;19913;-79
2023/01/03 14:04:49;;;;;;;;;;;19.90;99.90;;;;;;5053365;28;19916;-80
2023/01/03 14:07:21;;;;;;;;;;;19.70;99.90;;;;;;5053181;28;20375;-79
2023/01/03 14:10:04;;;;;;;;;;;19.50;99.90;;;;;;5052897;28;19996;-79
2023/01/03 14:12:55;;;;;;;;;;;19.40;99.90;;;;;;5053785;28;19953;-80
2023/01/03 14:15:30;;;;;;;;;;;19.20;99.90;;;;;;5053433;28;19975;-80
2023/01/03 14:18:25;;;;;;;;;;;19.10;99.90;;;;;;5064966;28;19911;-79
2023/01/03 14:20:52;;;;;;;;;;;19.20;99.90;;;;;;4972850;28;20378;-78
2023/01/03 14:23:30;;;;;;;;;;;19.00;99.90;;;;;;4972531;28;19960;-81
2023/01/03 14:26:28;;;;;;;;;;;18.70;99.90;;;;;;4973190;28;19914;-81
2023/01/03 14:28:55;;;;;;;;;;;18.70;99.90;;;;;;4915621;29;19911;-81
2023/01/03 14:31:28;;;;;;;;;;;18.60;99.90;;;;;;4915376;29;19911;-82
2023/01/03 14:33:54;;;;;;;;;;;18.50;99.90;;;;;;4915491;29;19907;-78
2023/01/03 14:36:28;;;;;;;;;;;18.40;99.90;;;;;;4915217;29;19907;-79
2023/01/03 14:38:58;;;;;;;;;;;18.50;99.90;;;;;;4915652;29;20010;-79
2023/01/03 14:41:34;;;;;;;;;;;18.40;99.90;;;;;;4902745;29;19908;-79
2023/01/03 14:44:02;;;;;;;;;;;18.40;99.90;;;;;;4896416;29;19926;-79
2023/01/03 14:46:37;;;;;;;;;;;18.40;99.90;;;;;;4896179;29;20311;-77
2023/01/03 14:49:04;;;;;;;;;;;18.40;99.90;;;;;;4896525;29;19911;-78
2023/01/03 14:51:31;;;;;;;;;;;18.20;99.90;;;;;;4896347;29;20001;-78
2023/01/03 14:53:58;;;;;;;;;;;18.30;99.90;;;;;;4895970;29;19915;-78
2023/01/03 14:56:24;;;;;;;;;;;18.20;99.90;;;;;;4905042;29;19907;-77
2023/01/03 14:58:50;;;;;;;;;;;18.10;99.90;;;;;;4954003;29;20630;-80
2023/01/03 15:01:17;;;;;;;;;;;18.00;99.90;;;;;;4953098;29;20394;-80
2023/01/03 15:03:44;;;;;;;;;;;17.90;99.90;;;;;;4968662;28;20274;-81
2023/01/03 15:06:30;;;;;;;;;;;17.90;99.90;;;;;;5033027;28;19920;-80
2023/01/03 15:08:57;;;;;;;;;;;17.90;99.90;;;;;;5032789;28;19905;-79
2023/01/03 15:14:29;;;;;;;;;;;18.00;99.90;;;;;;5033452;28;19971;-78
2023/01/03 15:17:10;;;;;;;;;;;18.00;99.90;;;;;;5033185;28;19950;-79
2023/01/03 15:19:46;;;;;;;;;;;18.00;99.90;;;;;;5015340;28;19916;-79
2023/01/03 15:22:13;;;;;;;;;;;18.00;99.90;;;;;;5033276;28;19909;-76
2023/01/03 15:25:03;;;;;;;;;;;17.90;99.90;;;;;;5032615;28;19905;-77
2023/01/03 15:27:37;;;;;;;;;;;17.80;99.90;;;;;;5032732;28;19999;-77
2023/01/03 15:30:15;;;;;;;;;;;17.80;99.90;;;;;;5051339;28;19905;-80
2023/01/03 15:32:44;;;;;;;;;;;17.80;99.90;;;;;;5071522;28;19911;-77
2023/01/03 15:35:18;;;;;;;;;;;17.70;99.90;;;;;;5071838;28;19905;-77
2023/01/03 15:37:44;;;;;;;;;;;17.60;99.90;;;;;;5056430;28;19916;-77
2023/01/03 15:40:11;;;;;;;;;;;17.60;99.90;;;;;;5056179;28;19905;-77
2023/01/03 15:45:35;;;;;;;;;;;17.50;99.90;;;;;;5076473;28;19918;-78
2023/01/03 15:48:01;;;;;;;;;;;17.40;99.90;;;;;;5076579;28;19908;-78
2023/01/03 15:50:58;;;;;;;;;;;17.40;99.90;;;;;;5075882;28;20293;-78
2023/01/03 15:53:25;;;;;;;;;;;17.30;99.90;;;;;;4994651;28;19906;-78
2023/01/03 15:56:03;;;;;;;;;;;17.20;99.90;;;;;;4978283;28;19917;-79
2023/01/03 15:58:29;;;;;;;;;;;17.10;99.90;;;;;;4994945;28;19996;-78
2023/01/03 16:00:56;;;;;;;;;;;17.00;99.90;;;;;;4994127;28;19961;-73
2023/01/03 16:03:23;;;;;;;;;;;16.80;99.90;;;;;;4994005;28;19920;-71